createdAt,value
2022-09-14T00:01:49.519Z,64.65
2022-09-14T00:04:20.533Z,64.47
2022-09-14T00:06:50.317Z,64.57
2022-09-14T00:09:22.399Z,64.07
2022-09-14T00:11:52.080Z,63.71
2022-09-14T00:14:21.402Z,63.28
2022-09-14T00:16:53.134Z,63.38
2022-09-14T00:19:26.212Z,63.09
2022-09-14T00:21:58.151Z,62.47
2022-09-14T00:24:28.674Z,62.11
2022-09-14T00:26:58.111Z,62.10
2022-09-14T00:29:27.347Z,62.03
2022-09-14T00:31:56.265Z,61.89
2022-09-14T00:34:25.075Z,61.92
2022-09-14T00:36:54.729Z,61.32
2022-09-14T00:39:25.625Z,61.48
2022-09-14T00:41:54.489Z,60.96
2022-09-14T00:44:23.952Z,60.94
2022-09-14T00:46:56.284Z,61.18
2022-09-14T00:49:38.672Z,60.91
2022-09-14T00:52:15.922Z,59.02
2022-09-14T00:54:52.297Z,56.79
2022-09-14T00:57:22.911Z,55.37
2022-09-14T00:59:53.770Z,54.75
2022-09-14T01:02:27.122Z,54.23
2022-09-14T01:04:57.139Z,54.47
2022-09-14T01:07:26.683Z,54.05
2022-09-14T01:10:21.328Z,53.24
2022-09-14T01:13:05.817Z,52.85
2022-09-14T01:15:49.258Z,51.85
2022-09-14T01:18:29.981Z,50.45
2022-09-14T01:21:07.969Z,50.12
2022-09-14T01:24:12.910Z,50.14
2022-09-14T01:27:00.614Z,48.98
2022-09-14T01:30:01.247Z,48.01
2022-09-14T01:32:51.068Z,47.59
2022-09-14T01:35:34.739Z,46.80
2022-09-14T01:38:18.960Z,45.61
2022-09-14T01:40:50.616Z,44.69
2022-09-14T01:43:22.494Z,44.22
2022-09-14T01:46:00.251Z,44.11
2022-09-14T01:48:38.167Z,42.91
2022-09-14T01:51:13.173Z,42.25
2022-09-14T01:53:50.745Z,41.07
2022-09-14T01:56:25.188Z,41.19
2022-09-14T01:58:59.635Z,40.21
2022-09-14T02:01:36.559Z,39.52
2022-09-14T02:04:10.827Z,38.97
2022-09-14T02:06:44.262Z,38.07
2022-09-14T02:09:18.680Z,37.44
2022-09-14T02:11:48.149Z,37.30
2022-09-14T02:14:17.021Z,36.28
2022-09-14T02:25:49.431Z,34.21
2022-09-14T02:28:20.238Z,34.32
2022-09-14T02:33:27.512Z,33.24
2022-09-14T02:35:58.975Z,32.71
2022-09-14T02:38:41.737Z,32.66
2022-09-14T02:41:27.362Z,32.13
2022-09-14T02:47:02.174Z,31.29
2022-09-14T02:49:36.871Z,30.41
2022-09-14T02:52:31.780Z,29.64
2022-09-14T02:55:20.947Z,31.85
2022-09-14T02:58:11.075Z,33.12
2022-09-14T03:00:44.449Z,31.81
2022-09-14T03:03:20.261Z,30.76
2022-09-14T03:05:52.693Z,31.10
2022-09-14T03:08:23.112Z,32.73
2022-09-14T03:10:56.809Z,33.89
2022-09-14T03:13:30.461Z,32.50
2022-09-14T03:16:10.824Z,30.54
2022-09-14T03:18:44.457Z,29.43
2022-09-14T03:21:17.933Z,28.59
2022-09-14T03:23:49.789Z,28.96
2022-09-14T03:26:22.177Z,28.79
2022-09-14T03:28:55.695Z,28.19
2022-09-14T03:31:27.103Z,27.64
2022-09-14T03:33:58.809Z,27.13
2022-09-14T03:36:30.805Z,27.56
2022-09-14T03:39:02.243Z,27.41
2022-09-14T03:41:31.159Z,27.18
2022-09-14T03:43:59.799Z,28.05
2022-09-14T03:46:28.729Z,27.54
2022-09-14T03:48:57.882Z,26.24
2022-09-14T03:51:26.993Z,25.40
2022-09-14T03:53:55.736Z,24.77
2022-09-14T03:56:24.598Z,24.84
2022-09-14T03:58:53.621Z,25.36
2022-09-14T04:01:24.440Z,25.57
2022-09-14T04:03:53.654Z,24.98
2022-09-14T04:06:22.789Z,24.34
2022-09-14T04:08:51.597Z,24.58
2022-09-14T04:11:22.965Z,24.09
2022-09-14T04:13:52.812Z,23.20
2022-09-14T04:16:22.698Z,23.07
2022-09-14T04:18:51.710Z,23.39
2022-09-14T04:21:23.936Z,23.65
2022-09-14T04:24:15.299Z,23.15
2022-09-14T04:26:45.970Z,22.46
2022-09-14T04:29:15.353Z,21.92
2022-09-14T04:31:44.730Z,20.74
2022-09-14T04:34:16.836Z,20.47
2022-09-14T04:36:45.532Z,20.09
2022-09-14T04:39:15.678Z,20.18
2022-09-14T04:41:44.704Z,19.86
2022-09-14T04:44:13.770Z,20.19
2022-09-14T04:46:46.464Z,20.05
2022-09-14T04:49:19.354Z,19.68
2022-09-14T04:51:48.578Z,19.99
2022-09-14T04:54:18.944Z,20.03
2022-09-14T04:56:47.662Z,19.78
2022-09-14T04:59:16.590Z,19.51
2022-09-14T05:01:48.608Z,19.15
2022-09-14T05:04:18.516Z,19.06
2022-09-14T05:06:47.600Z,18.92
2022-09-14T05:09:18.819Z,18.81
2022-09-14T05:11:50.145Z,19.01
2022-09-14T05:14:19.019Z,18.63
2022-09-14T05:16:48.573Z,18.75
2022-09-14T05:19:19.685Z,18.49
2022-09-14T05:21:48.754Z,18.33
2022-09-14T05:24:19.455Z,17.90
2022-09-14T05:26:48.913Z,18.26
2022-09-14T05:29:19.462Z,18.19
2022-09-14T05:31:48.764Z,17.70
2022-09-14T05:34:17.649Z,17.99
2022-09-14T05:36:46.443Z,17.62
2022-09-14T05:39:16.943Z,17.50
2022-09-14T05:41:50.868Z,17.24
2022-09-14T05:44:19.684Z,17.59
2022-09-14T05:46:48.461Z,17.84
2022-09-14T05:49:17.257Z,17.62
2022-09-14T05:51:46.091Z,17.58
2022-09-14T05:54:14.854Z,17.65
2022-09-14T05:56:43.600Z,17.68
2022-09-14T05:59:12.507Z,17.44
2022-09-14T06:01:42.992Z,17.25
2022-09-14T06:04:12.881Z,17.26
2022-09-14T06:06:49.344Z,17.19
2022-09-14T06:09:33.211Z,17.46
2022-09-14T06:12:02.309Z,17.02
2022-09-14T06:14:31.083Z,17.52
2022-09-14T06:17:00.367Z,17.42
2022-09-14T06:19:29.175Z,16.20
2022-09-14T06:21:58.156Z,16.72
2022-09-14T06:24:27.053Z,16.90
2022-09-14T06:26:56.361Z,16.68
2022-09-14T06:29:25.769Z,17.03
2022-09-14T06:31:55.442Z,16.71
2022-09-14T06:34:24.205Z,17.27
2022-09-14T06:36:54.705Z,16.86
2022-09-14T06:39:24.670Z,16.98
2022-09-14T06:41:53.804Z,17.06
2022-09-14T06:44:22.838Z,17.18
2022-09-14T06:46:51.778Z,17.39
2022-09-14T06:49:23.737Z,17.25
2022-09-14T06:51:55.400Z,17.10
2022-09-14T06:54:26.062Z,17.16
2022-09-14T06:56:54.953Z,17.08
2022-09-14T06:59:23.876Z,17.56
2022-09-14T07:01:53.661Z,17.83
2022-09-14T07:04:22.750Z,17.77
2022-09-14T07:06:52.520Z,17.07
2022-09-14T07:09:21.693Z,17.63
2022-09-14T07:11:50.464Z,18.20
2022-09-14T07:14:20.821Z,18.45
2022-09-14T07:16:50.534Z,18.63
2022-09-14T07:19:19.349Z,19.11
2022-09-14T07:21:49.034Z,18.98
2022-09-14T07:24:18.856Z,18.26
2022-09-14T07:26:47.603Z,18.01
2022-09-14T07:29:19.365Z,18.38
2022-09-14T07:31:51.718Z,18.08
2022-09-14T07:34:22.352Z,17.99
2022-09-14T07:36:51.668Z,18.32
2022-09-14T07:39:20.404Z,18.39
2022-09-14T07:41:50.089Z,19.28
2022-09-14T07:44:19.995Z,20.42
2022-09-14T07:46:49.007Z,21.50
2022-09-14T07:49:20.215Z,22.15
2022-09-14T07:51:49.596Z,22.65
2022-09-14T07:54:19.785Z,23.14
2022-09-14T07:56:49.984Z,23.47
2022-09-14T07:59:36.558Z,23.88
2022-09-14T08:02:09.120Z,24.24
2022-09-14T08:04:43.091Z,24.07
2022-09-14T08:07:12.002Z,23.59
2022-09-14T08:09:40.684Z,23.98
2022-09-14T08:12:09.648Z,24.41
2022-09-14T08:14:39.151Z,25.18
2022-09-14T08:17:08.194Z,25.50
2022-09-14T08:19:38.410Z,26.19
2022-09-14T08:22:07.377Z,26.36
2022-09-14T08:24:36.149Z,26.85
2022-09-14T08:27:05.294Z,27.35
2022-09-14T08:29:34.029Z,27.55
2022-09-14T08:32:03.003Z,27.81
2022-09-14T08:34:32.509Z,28.18
2022-09-14T08:37:01.267Z,28.49
2022-09-14T08:39:30.767Z,28.42
2022-09-14T08:42:01.279Z,28.64
2022-09-14T08:44:40.384Z,28.58
2022-09-14T08:47:22.583Z,28.38
2022-09-14T08:50:13.060Z,28.13
2022-09-14T08:52:56.022Z,28.33
2022-09-14T08:55:45.946Z,28.23
2022-09-14T08:58:35.082Z,28.53
2022-09-14T09:01:21.651Z,28.59
2022-09-14T09:04:20.892Z,28.70
2022-09-14T09:07:08.316Z,29.03
2022-09-14T09:09:41.755Z,28.89
2022-09-14T09:12:19.718Z,29.04
2022-09-14T09:14:55.675Z,29.13
2022-09-14T09:17:31.916Z,29.06
2022-09-14T09:20:07.361Z,29.24
2022-09-14T09:23:08.375Z,29.42
2022-09-14T09:26:01.375Z,29.61
2022-09-14T09:28:31.675Z,29.70
2022-09-14T09:31:05.823Z,30.06
2022-09-14T09:33:55.035Z,29.76
2022-09-14T09:36:25.706Z,29.76
2022-09-14T09:38:54.507Z,29.89
2022-09-14T09:41:31.453Z,30.10
2022-09-14T09:44:02.062Z,29.86
2022-09-14T09:46:33.999Z,30.08
2022-09-14T09:49:06.073Z,30.27
2022-09-14T09:51:36.088Z,30.67
2022-09-14T09:54:04.904Z,30.52
2022-09-14T09:56:37.380Z,30.95
2022-09-14T09:59:27.785Z,30.88
2022-09-14T10:02:16.737Z,31.32
2022-09-14T10:05:06.317Z,31.41
2022-09-14T10:07:57.108Z,31.42
2022-09-14T10:10:46.630Z,31.24
2022-09-14T10:13:36.483Z,31.45
2022-09-14T10:16:17.465Z,31.34
2022-09-14T10:18:52.917Z,31.96
2022-09-14T10:21:26.543Z,32.30
2022-09-14T10:24:17.886Z,32.21
2022-09-14T10:26:46.841Z,32.58
2022-09-14T10:29:36.483Z,32.94
2022-09-14T10:32:24.229Z,33.21
2022-09-14T10:34:53.609Z,32.88
2022-09-14T10:37:47.990Z,33.48
2022-09-14T10:40:21.910Z,33.72
2022-09-14T10:42:58.774Z,33.72
2022-09-14T10:45:57.999Z,33.95
2022-09-14T10:48:44.874Z,33.97
2022-09-14T10:51:16.401Z,34.13
2022-09-14T10:53:55.802Z,34.32
2022-09-14T10:56:46.672Z,34.87
2022-09-14T10:59:29.523Z,34.83
2022-09-14T11:02:30.440Z,34.69
2022-09-14T11:05:24.130Z,35.18
2022-09-14T11:08:03.237Z,35.30
2022-09-14T11:10:44.191Z,35.67
2022-09-14T11:13:45.630Z,35.63
2022-09-14T11:16:41.867Z,36.12
2022-09-14T11:19:38.727Z,36.36
2022-09-14T11:22:13.676Z,36.65
2022-09-14T11:25:04.479Z,36.86
2022-09-14T11:27:45.665Z,37.21
2022-09-14T11:30:30.774Z,37.44
2022-09-14T11:33:12.833Z,37.99
2022-09-14T11:35:54.078Z,37.65
2022-09-14T11:38:35.908Z,37.63
2022-09-14T11:41:33.705Z,38.09
2022-09-14T11:44:12.929Z,38.08
2022-09-14T11:47:01.895Z,38.22
2022-09-14T11:49:58.203Z,38.48
2022-09-14T11:52:30.611Z,38.46
2022-09-14T11:55:01.090Z,38.31
2022-09-14T11:57:34.225Z,38.52
2022-09-14T12:00:31.252Z,39.13
2022-09-14T12:03:21.071Z,38.90
2022-09-14T12:05:51.121Z,38.75
2022-09-14T12:08:31.802Z,39.06
2022-09-14T12:11:09.943Z,39.17
2022-09-14T12:13:39.682Z,39.40
2022-09-14T12:16:10.732Z,38.98
2022-09-14T12:18:56.569Z,39.18
2022-09-14T12:21:29.359Z,39.40
2022-09-14T12:23:58.810Z,39.08
2022-09-14T12:26:32.588Z,39.36
2022-09-14T12:29:46.482Z,39.58
2022-09-14T12:32:45.044Z,39.62
2022-09-14T12:35:36.787Z,39.71
2022-09-14T12:38:30.707Z,39.88
2022-09-14T12:41:19.940Z,39.59
2022-09-14T12:43:51.946Z,39.91
2022-09-14T12:46:21.918Z,40.06
2022-09-14T12:49:00.260Z,40.42
2022-09-14T12:51:32.284Z,40.06
2022-09-14T12:54:10.027Z,40.24
2022-09-14T12:56:39.812Z,40.42
2022-09-14T12:59:19.147Z,40.21
2022-09-14T13:02:04.566Z,40.30
2022-09-14T13:04:37.378Z,40.75
2022-09-14T13:07:14.172Z,40.70
2022-09-14T13:09:56.632Z,40.83
2022-09-14T13:12:33.056Z,41.06
2022-09-14T13:15:06.661Z,40.84
2022-09-14T13:17:35.565Z,41.01
2022-09-14T13:20:18.990Z,41.04
2022-09-14T13:22:47.874Z,40.84
2022-09-14T13:25:46.014Z,41.21
2022-09-14T13:28:18.544Z,41.04
2022-09-14T13:30:59.632Z,41.44
2022-09-14T13:33:30.623Z,41.34
2022-09-14T13:36:03.843Z,41.16
2022-09-14T13:38:38.315Z,41.42
2022-09-14T13:41:16.118Z,41.63
2022-09-14T13:43:50.257Z,41.49
2022-09-14T13:46:20.559Z,41.65
2022-09-14T13:48:50.730Z,41.93
2022-09-14T13:51:27.699Z,41.57
2022-09-14T13:53:58.811Z,41.95
2022-09-14T13:56:27.630Z,42.18
2022-09-14T13:59:12.212Z,41.90
2022-09-14T14:01:47.770Z,42.24
2022-09-14T14:04:28.736Z,42.02
2022-09-14T14:07:23.039Z,41.99
2022-09-14T14:09:58.049Z,42.37
2022-09-14T14:12:30.443Z,42.47
2022-09-14T14:15:13.064Z,42.90
2022-09-14T14:17:42.555Z,42.81
2022-09-14T14:20:30.441Z,42.97
2022-09-14T14:23:11.474Z,42.68
2022-09-14T14:25:46.010Z,43.07
2022-09-14T14:28:25.435Z,43.00
2022-09-14T14:30:56.170Z,42.90
2022-09-14T14:33:25.796Z,43.13
2022-09-14T14:35:57.017Z,43.22
2022-09-14T14:38:26.560Z,43.43
2022-09-14T14:40:56.760Z,43.25
2022-09-14T14:43:27.770Z,43.41
2022-09-14T14:46:03.864Z,43.10
2022-09-14T14:48:32.788Z,43.38
2022-09-14T14:51:02.988Z,43.00
2022-09-14T14:53:32.284Z,43.37
2022-09-14T14:56:01.212Z,43.19
2022-09-14T14:58:29.983Z,43.09
2022-09-14T15:00:59.312Z,43.44
2022-09-14T15:03:28.641Z,43.82
2022-09-14T15:05:57.751Z,43.57
2022-09-14T15:08:26.465Z,43.76
2022-09-14T15:10:58.729Z,44.05
2022-09-14T15:13:27.491Z,44.02
2022-09-14T15:15:57.754Z,44.35
2022-09-14T15:18:26.502Z,44.41
2022-09-14T15:20:55.264Z,44.28
2022-09-14T15:23:24.061Z,44.06
2022-09-14T15:25:53.071Z,44.31
2022-09-14T15:28:21.803Z,44.30
2022-09-14T15:30:50.554Z,44.61
2022-09-14T15:33:20.141Z,44.56
2022-09-14T15:35:55.945Z,44.79
2022-09-14T15:38:25.658Z,44.79
2022-09-14T15:40:54.660Z,44.35
2022-09-14T15:43:24.032Z,44.89
2022-09-14T15:45:52.954Z,44.96
2022-09-14T15:48:21.871Z,44.76
2022-09-14T15:50:50.650Z,44.67
2022-09-14T15:53:19.557Z,44.84
2022-09-14T15:55:49.103Z,44.96
2022-09-14T15:58:17.823Z,45.05
2022-09-14T16:00:47.650Z,44.77
2022-09-14T16:03:16.710Z,45.13
2022-09-14T16:05:45.726Z,44.87
2022-09-14T16:08:14.499Z,45.11
2022-09-14T16:10:43.626Z,45.10
2022-09-14T16:13:13.052Z,45.23
2022-09-14T16:15:42.028Z,45.62
2022-09-14T16:18:10.869Z,45.45
2022-09-14T16:20:40.442Z,45.93
2022-09-14T16:23:09.735Z,45.75
2022-09-14T16:25:42.427Z,46.15
2022-09-14T16:28:11.106Z,45.92
2022-09-14T16:30:39.819Z,45.95
2022-09-14T16:33:08.596Z,46.73
2022-09-14T16:35:37.787Z,46.76
2022-09-14T16:38:06.548Z,47.01
2022-09-14T16:40:35.301Z,47.10
2022-09-14T16:43:05.739Z,46.74
2022-09-14T16:45:34.788Z,46.91
2022-09-14T16:48:03.819Z,47.24
2022-09-14T16:50:32.501Z,47.08
2022-09-14T16:53:02.114Z,47.28
2022-09-14T16:55:33.054Z,47.42
2022-09-14T16:58:02.680Z,47.77
2022-09-14T17:00:32.291Z,47.59
2022-09-14T17:03:01.169Z,47.85
2022-09-14T17:05:30.665Z,48.10
2022-09-14T17:07:59.775Z,48.30
2022-09-14T17:10:28.682Z,48.40
2022-09-14T17:12:57.757Z,48.16
2022-09-14T17:15:26.657Z,48.70
2022-09-14T17:17:56.710Z,48.65
2022-09-14T17:20:25.831Z,48.50
2022-09-14T17:22:54.566Z,48.87
2022-09-14T17:25:24.343Z,48.86
2022-09-14T17:27:53.217Z,48.66
2022-09-14T17:30:21.939Z,48.36
2022-09-14T17:32:50.687Z,49.38
2022-09-14T17:35:19.387Z,49.17
2022-09-14T17:37:48.102Z,49.03
2022-09-14T17:40:17.038Z,49.16
2022-09-14T17:42:45.833Z,49.56
2022-09-14T17:45:14.726Z,49.23
2022-09-14T17:47:43.417Z,49.30
2022-09-14T17:50:12.403Z,49.45
2022-09-14T17:52:41.175Z,49.34
2022-09-14T17:55:10.101Z,49.50
2022-09-14T17:57:39.458Z,49.75
2022-09-14T18:00:09.767Z,49.33
2022-09-14T18:02:39.081Z,49.71
2022-09-14T18:05:10.766Z,49.86
2022-09-14T18:07:39.525Z,49.75
2022-09-14T18:10:08.691Z,49.85
2022-09-14T18:12:37.441Z,50.23
2022-09-14T18:15:06.936Z,49.64
2022-09-14T18:17:35.677Z,49.86
2022-09-14T18:20:05.723Z,50.47
2022-09-14T18:22:34.672Z,50.24
2022-09-14T18:25:05.063Z,50.22
2022-09-14T18:27:33.975Z,50.68
2022-09-14T18:30:03.515Z,50.64
2022-09-14T18:32:32.383Z,50.61
2022-09-14T18:35:01.668Z,50.61
2022-09-14T18:37:31.639Z,50.54
2022-09-14T18:40:00.370Z,50.68
2022-09-14T18:42:29.114Z,50.73
2022-09-14T18:44:57.959Z,50.35
2022-09-14T18:47:26.690Z,51.10
2022-09-14T18:49:55.542Z,50.54
2022-09-14T18:52:24.370Z,50.90
2022-09-14T18:54:53.182Z,50.37
2022-09-14T18:57:23.027Z,51.17
2022-09-14T18:59:51.952Z,50.55
2022-09-14T19:02:21.031Z,50.85
2022-09-14T19:04:50.326Z,50.77
2022-09-14T19:07:19.097Z,51.08
2022-09-14T19:09:47.903Z,51.21
2022-09-14T19:12:16.682Z,50.99
2022-09-14T19:14:45.384Z,51.26
2022-09-14T19:17:15.068Z,51.40
2022-09-14T19:19:43.895Z,51.71
2022-09-14T19:22:12.654Z,51.63
2022-09-14T19:24:41.378Z,51.62
2022-09-14T19:27:11.104Z,51.56
2022-09-14T19:29:39.790Z,51.54
2022-09-14T19:32:08.521Z,51.41
2022-09-14T19:34:38.875Z,51.46
2022-09-14T19:37:07.677Z,51.73
2022-09-14T19:39:36.469Z,52.03
2022-09-14T19:42:05.629Z,52.04
2022-09-14T19:44:34.444Z,51.89
2022-09-14T19:47:03.439Z,52.08
2022-09-14T19:49:32.184Z,51.97
2022-09-14T19:52:00.953Z,51.79
2022-09-14T19:54:29.700Z,52.61
2022-09-14T19:56:58.509Z,52.34
2022-09-14T19:59:27.508Z,52.03
2022-09-14T20:01:57.467Z,52.59
2022-09-14T20:04:26.959Z,52.54
2022-09-14T20:06:57.919Z,52.81
2022-09-14T20:09:26.685Z,52.18
2022-09-14T20:11:55.869Z,52.44
2022-09-14T20:14:26.258Z,53.13
2022-09-14T20:16:58.155Z,52.64
2022-09-14T20:19:28.923Z,52.29
2022-09-14T20:21:58.764Z,52.69
2022-09-14T20:24:29.483Z,52.91
2022-09-14T20:27:00.898Z,52.83
2022-09-14T20:29:31.592Z,52.38
2022-09-14T20:32:00.878Z,52.93
2022-09-14T20:34:31.161Z,52.88
2022-09-14T20:37:02.830Z,52.91
2022-09-14T20:39:31.822Z,52.56
2022-09-14T20:42:00.568Z,53.33
2022-09-14T20:44:29.280Z,52.83
2022-09-14T20:46:58.047Z,53.42
2022-09-14T20:49:27.228Z,53.00
2022-09-14T20:51:57.912Z,53.22
2022-09-14T20:54:26.630Z,53.68
2022-09-14T20:56:55.437Z,53.23
2022-09-14T20:59:24.246Z,53.51
2022-09-14T21:01:54.228Z,52.86
2022-09-14T21:04:25.541Z,53.78
2022-09-14T21:06:56.427Z,53.72
2022-09-14T21:09:26.518Z,53.04
2022-09-14T21:11:55.368Z,53.82
2022-09-14T21:14:24.187Z,53.57
2022-09-14T21:16:57.597Z,54.00
2022-09-14T21:19:29.578Z,53.50
2022-09-14T21:21:58.401Z,53.73
2022-09-14T21:24:27.204Z,53.41
2022-09-14T21:26:57.661Z,53.99
2022-09-14T21:29:26.379Z,53.87
2022-09-14T21:31:55.256Z,53.65
2022-09-14T21:34:25.389Z,54.30
2022-09-14T21:36:54.690Z,54.17
2022-09-14T21:39:25.650Z,53.86
2022-09-14T21:41:59.205Z,54.47
2022-09-14T21:44:30.571Z,54.44
2022-09-14T21:46:59.832Z,54.44
2022-09-14T21:49:28.874Z,54.62
2022-09-14T21:51:57.600Z,54.57
2022-09-14T21:54:27.044Z,55.11
2022-09-14T21:56:55.855Z,55.00
2022-09-14T21:59:24.683Z,54.84
2022-09-14T22:01:55.579Z,55.55
2022-09-14T22:04:26.751Z,55.67
2022-09-14T22:06:57.818Z,55.53
2022-09-14T22:09:29.642Z,55.57
2022-09-14T22:11:58.793Z,56.00
2022-09-14T22:14:29.790Z,55.61
2022-09-14T22:16:59.821Z,56.03
2022-09-14T22:19:31.435Z,55.93
2022-09-14T22:22:00.317Z,56.06
2022-09-14T22:24:38.864Z,56.00
2022-09-14T22:27:10.783Z,55.88
2022-09-14T22:29:41.524Z,56.02
2022-09-14T22:32:11.485Z,56.09
2022-09-14T22:34:43.911Z,56.46
2022-09-14T22:37:15.320Z,56.19
2022-09-14T22:39:44.192Z,56.69
2022-09-14T22:42:13.785Z,56.48
2022-09-14T22:44:42.446Z,56.39
2022-09-14T22:47:11.191Z,56.44
2022-09-14T22:49:39.902Z,56.70
2022-09-14T22:52:08.708Z,56.55
2022-09-14T22:54:37.433Z,56.55
2022-09-14T22:57:06.228Z,56.63
2022-09-14T22:59:34.929Z,56.83
2022-09-14T23:02:04.379Z,56.68
2022-09-14T23:04:34.279Z,56.82
2022-09-14T23:07:03.086Z,56.80
2022-09-14T23:09:31.940Z,56.75
2022-09-14T23:12:00.789Z,56.71
2022-09-14T23:14:29.696Z,56.69
2022-09-14T23:16:58.685Z,56.53
2022-09-14T23:19:27.605Z,56.63
2022-09-14T23:21:56.355Z,56.65
2022-09-14T23:24:25.156Z,56.86
2022-09-14T23:26:53.911Z,56.43
2022-09-14T23:29:22.684Z,56.85
2022-09-14T23:31:51.504Z,57.00
2022-09-14T23:34:20.161Z,56.99
2022-09-14T23:36:48.912Z,56.73
2022-09-14T23:39:17.648Z,56.55
2022-09-14T23:41:46.351Z,56.54
2022-09-14T23:44:15.775Z,56.40
2022-09-14T23:46:44.438Z,56.46
2022-09-14T23:49:13.979Z,56.65
2022-09-14T23:51:43.461Z,56.51
2022-09-14T23:54:13.206Z,56.54
2022-09-14T23:56:42.213Z,56.59
2022-09-14T23:59:14.002Z,56.98
